• Join FlightAware (Why Join?)
  • Login
  • US Flag 
05:24AM EDT


 

Airport Tracker/Info


-or-


 

Live Flight TrackerFlight Track Log ✈ CUB179 ✈ 21-Apr-2013 ✈ CYUL - MUHG / HOG

Flight Track Log - Related Links

Times and Time Zones

All times are in EDT time to prevent confusion due to time zone crossing. See the CUB179 flight status page for this flight to view local times or setup timezone preferences in your user account.

Time Position Orientation Groundspeed Altitude Reporting Facility
EDT Latitude Longitude Course Direction KTS MPH feet Rate Location/Type
07:07AM 45.4690 -73.7260 226° Southwest 167 192  Level FlightAware
07:08AM 45.4600 -73.7380 223° Southwest 161 185 700 2,400 Climbing FlightAware
07:08AM 45.4420 -73.7580 218° Southwest 170 196 1,800 1,980 Climbing FlightAware
07:09AM 45.4240 -73.7790 219° Southwest 171 197 2,700 1,260 Climbing FlightAware
07:09AM 45.4070 -73.7990 220° Southwest 201 231 3,000 960 Climbing FlightAware
07:10AM 45.3840 -73.8280 222° Southwest 237 273 3,600 1,380 Climbing FlightAware
07:10AM 45.3620 -73.8550 221° Southwest 261 300 4,300 2,400 Climbing FlightAware
07:10AM 45.3290 -73.8770 205° Southwest 268 308 5,800 2,820 Climbing FlightAware
07:11AM 45.2990 -73.8950 203° Southwest 275 316 6,900 2,580 Climbing FlightAware
07:11AM 45.2650 -73.9160 203° Southwest 283 326 8,200 2,460 Climbing FlightAware
07:12AM 45.2270 -73.9390 203° Southwest 292 336 9,400 2,040 Climbing FlightAware
07:13AM 45.1770 -73.9710 204° Southwest 317 365 10,600 1,260 Climbing FlightAware
07:13AM 45.1240 -74.0040 204° Southwest 355 409 11,100 720 Climbing FlightAware
07:14AM 45.0460 -74.0520 204° Southwest 398 458 11,700 1,380 Climbing FlightAware
07:15AM 44.9860 -74.0830 200° South 405 466 13,000 2,220 Climbing FlightAware
07:15AM 44.9020 -74.0980 187° South 409 471 14,700 2,040 Climbing FlightAware
07:16AM 44.8140 -74.1150 188° South 414 476 16,100 1,260 Climbing FlightAware
07:17AM 44.7390 -74.1360 191° South 407 468 16,500 660 Climbing FlightAware
07:17AM 44.6770 -74.2060 219° Southwest 399 459 17,100 1,320 Climbing FlightAware
07:18AM 44.6230 -74.2810 225° Southwest 400 460 18,400 1,740 Climbing FlightAware
07:19AM 44.5640 -74.3620 224° Southwest 403 464 19,600 1,440 Climbing FlightAware
07:20AM 44.5100 -74.4350 224° Southwest 409 471 20,500 1,380 Climbing FlightAware
07:20AM 44.4550 -74.5100 224° Southwest 409 471 21,500 1,020 Climbing FlightAware
07:21AM 44.3910 -74.5960 224° Southwest 415 478 22,000 600 Climbing FlightAware
07:22AM 44.3380 -74.6690 225° Southwest 420 483 22,400 780 Climbing FlightAware
07:22AM 44.2800 -74.7460 224° Southwest 423 487 23,100 900 Climbing FlightAware
07:23AM 44.2180 -74.8290 224° Southwest 430 495 23,700 1,020 Climbing FlightAware
07:24AM 44.1600 -74.9070 224° Southwest 426 490 24,600 1,440 Climbing FlightAware
07:24AM 44.0970 -74.9900 223° Southwest 415 478 25,800 1,620 Climbing FlightAware
07:25AM 44.0420 -75.0640 224° Southwest 405 466 26,900 1,200 Climbing FlightAware
07:26AM 43.9810 -75.1450 224° Southwest 406 467 27,500 780 Climbing FlightAware
07:26AM 43.9390 -75.2010 224° Southwest 408 470 28,000 840 Climbing FlightAware
07:27AM 43.8730 -75.2880 224° Southwest 408 470 28,700 900 Climbing FlightAware
07:28AM 43.8200 -75.3580 224° Southwest 405 466 29,400 1,080 Climbing FlightAware
07:29AM 43.7630 -75.4330 224° Southwest 398 458 30,200 840 Climbing FlightAware
07:29AM 43.7030 -75.5120 224° Southwest 404 465 30,600 840 Climbing FlightAware
07:30AM 43.6480 -75.5830 223° Southwest 398 458 31,400 840 Climbing FlightAware
07:31AM 43.5880 -75.6620 224° Southwest 401 461 31,800 540 Climbing FlightAware
07:31AM 43.5330 -75.7320 223° Southwest 401 461 32,200 600 Climbing FlightAware
07:32AM 43.4880 -75.7910 224° Southwest 400 460 32,600 720 Climbing FlightAware
07:33AM 43.4200 -75.8800 224° Southwest 396 456 33,300 720 Climbing FlightAware
07:34AM 43.3660 -75.9490 223° Southwest 396 456 33,700 480 Climbing FlightAware
07:34AM 43.3120 -76.0180 223° Southwest 397 457 34,000 180 Climbing FlightAware
07:35AM 43.2540 -76.0920 223° Southwest 404 465 34,000  Level FlightAware
07:36AM 43.1960 -76.1660 223° Southwest 410 472 34,000  Level FlightAware
07:36AM 43.1350 -76.2280 217° Southwest 418 481 34,000  Level FlightAware
07:37AM 43.0600 -76.2900 211° Southwest 415 478 34,000  Level FlightAware
07:38AM 42.9950 -76.3450 212° Southwest 416 479 34,000  Level FlightAware
07:38AM 42.9200 -76.4060 211° Southwest 414 476 34,000  Level FlightAware
07:39AM 42.8580 -76.4580 212° Southwest 413 475 34,000  Level FlightAware
07:40AM 42.7820 -76.5200 211° Southwest 408 470 34,000  Level FlightAware
07:41AM 42.7180 -76.5720 211° Southwest 410 472 34,000  Level FlightAware
07:41AM 42.6460 -76.6320 212° Southwest 410 472 34,000  Level FlightAware
07:42AM 42.5810 -76.6840 211° Southwest 408 470 34,000  Level FlightAware
07:43AM 42.5190 -76.7350 211° Southwest 407 468 34,000  Level FlightAware
07:43AM 42.4410 -76.7980 211° Southwest 405 466 34,000  Level FlightAware
07:44AM 42.3820 -76.8460 211° Southwest 406 467 34,000  Level FlightAware
07:45AM 42.3140 -76.9010 211° Southwest 404 465 34,000  Level FlightAware
07:45AM 42.2400 -76.9600 211° Southwest 408 470 34,000  Level FlightAware
07:46AM 42.1740 -77.0130 211° Southwest 410 472 34,000  Level FlightAware
07:47AM 42.1010 -77.0710 211° Southwest 406 467 34,000  Level FlightAware
07:48AM 42.0370 -77.1220 211° Southwest 407 468 34,000  Level FlightAware
07:48AM 41.9780 -77.1690 211° Southwest 409 471 34,000  Level FlightAware
07:49AM 41.9060 -77.2260 211° Southwest 410 472 34,000  Level FlightAware
07:50AM 41.8330 -77.2840 211° Southwest 405 466 34,000  Level FlightAware
07:50AM 41.7690 -77.3340 210° Southwest 405 466 34,000  Level FlightAware
07:51AM 41.6880 -77.3990 211° Southwest 410 472 34,000  Level FlightAware
07:52AM 41.6470 -77.4300 209° Southwest 409 471 34,000  Level FlightAware
07:52AM 41.5830 -77.4800 210° Southwest 409 471 34,000  Level FlightAware
07:53AM 41.5270 -77.5240 210° Southwest 412 474 34,000  Level FlightAware
07:53AM 41.4750 -77.5650 211° Southwest 412 474 34,000  Level FlightAware
07:54AM 41.4260 -77.6020 210° Southwest 413 475 34,000  Level FlightAware
07:54AM 41.3760 -77.6420 211° Southwest 410 472 34,000  Level FlightAware
07:55AM 41.3210 -77.6840 210° Southwest 404 465 34,000  Level FlightAware
07:55AM 41.2690 -77.7240 210° Southwest 402 463 34,000  Level FlightAware
07:56AM 41.1980 -77.7780 210° Southwest 399 459 34,000  Level FlightAware
07:57AM 41.1360 -77.8260 210° Southwest 401 461 34,000  Level FlightAware
07:57AM 41.0710 -77.8760 210° Southwest 402 463 34,000  Level FlightAware
07:58AM 40.9800 -77.9450 210° Southwest 400 460 34,000  Level FlightAware
07:59AM 40.9220 -78.0040 218° Southwest 392 451 34,000  Level FlightAware
08:00AM 40.8610 -78.0910 227° Southwest 389 448 34,000  Level FlightAware
08:00AM 40.8200 -78.1550 230° Southwest 389 448 34,000  Level FlightAware
08:01AM 40.7790 -78.2170 229° Southwest 389 448 34,000  Level FlightAware
08:02AM 40.7340 -78.2870 230° Southwest 389 448 34,000  Level FlightAware
08:02AM 40.6860 -78.3610 229° Southwest 389 448 34,000  Level FlightAware
08:03AM 40.6390 -78.4340 230° Southwest 391 450 34,000  Level FlightAware
08:04AM 40.5910 -78.5070 229° Southwest 392 451 34,000  Level FlightAware
08:04AM 40.5390 -78.5860 229° Southwest 393 452 34,000  Level FlightAware
08:05AM 40.5020 -78.6430 230° Southwest 394 453 34,000  Level FlightAware
08:06AM 40.4620 -78.7030 229° Southwest 394 453 34,000  Level FlightAware
08:06AM 40.4090 -78.7840 229° Southwest 394 453 34,000  Level FlightAware
08:07AM 40.3590 -78.8600 229° Southwest 394 453 34,000  Level FlightAware
08:08AM 40.3120 -78.9310 229° Southwest 394 453 34,000  Level FlightAware
08:08AM 40.2630 -79.0040 229° Southwest 395 455 34,000  Level FlightAware
08:09AM 40.2030 -79.0950 229° Southwest 396 456 34,000  Level FlightAware
08:10AM 40.1520 -79.1720 229° Southwest 394 453 34,000  Level FlightAware
08:11AM 40.0970 -79.2540 229° Southwest 396 456 34,000  Level FlightAware
08:11AM 40.0490 -79.3250 229° Southwest 396 456 34,000  Level FlightAware
08:12AM 40.0020 -79.3950 229° Southwest 396 456 34,000  Level FlightAware
08:13AM 39.9550 -79.4560 225° Southwest 403 464 34,000  Level FlightAware
08:13AM 39.8760 -79.5040 205° Southwest 409 471 34,000  Level FlightAware
08:14AM 39.8130 -79.5420 205° Southwest 408 470 34,000  Level FlightAware
08:15AM 39.7090 -79.6050 205° Southwest 408 470 34,000  Level FlightAware
08:16AM 39.6330 -79.6510 205° Southwest 408 470 34,000  Level FlightAware
08:16AM 39.5580 -79.6950 204° Southwest 408 470 34,000  Level FlightAware
08:17AM 39.4830 -79.7400 205° Southwest 408 470 34,000  Level FlightAware
08:18AM 39.4130 -79.7820 205° Southwest 406 467 34,000  Level FlightAware
08:18AM 39.3410 -79.8250 205° Southwest 408 470 34,000  Level FlightAware
08:19AM 39.2750 -79.8640 205° Southwest 410 472 34,000  Level FlightAware
08:20AM 39.2050 -79.9050 204° Southwest 413 475 34,000  Level FlightAware
08:21AM 39.1260 -79.9520 205° Southwest 412 474 34,000  Level FlightAware
08:21AM 39.0500 -79.9970 205° Southwest 411 473 34,000  Level FlightAware
08:22AM 38.9710 -80.0440 205° Southwest 411 473 34,000  Level FlightAware
08:23AM 38.9020 -80.0770 200° South 419 482 34,000  Level FlightAware
08:23AM 38.8260 -80.1030 195° South 416 479 34,000  Level FlightAware
08:24AM 38.7490 -80.1310 196° South 416 479 34,000  Level FlightAware
08:25AM 38.6660 -80.1600 195° South 418 481 34,000  Level FlightAware
08:25AM 38.5800 -80.1910 196° South 418 481 34,000  Level FlightAware
08:26AM 38.5050 -80.2170 195° South 418 481 34,000  Level FlightAware
08:27AM 38.4220 -80.2460 195° South 418 481 34,000  Level FlightAware
08:28AM 38.3470 -80.2720 195° South 417 480 34,000  Level FlightAware
08:28AM 38.2730 -80.2980 195° South 416 479 34,000  Level FlightAware
08:29AM 38.1860 -80.3280 195° South 416 479 34,000  Level FlightAware
08:30AM 38.1130 -80.3530 195° South 417 480 34,000  Level FlightAware
08:30AM 38.0380 -80.3790 195° South 417 480 34,000  Level FlightAware
08:31AM 37.9550 -80.4080 195° South 418 481 34,000  Level FlightAware
08:32AM 37.8810 -80.4340 196° South 420 483 34,000  Level FlightAware
08:32AM 37.7940 -80.4640 195° South 419 482 34,000  Level FlightAware
08:33AM 37.7200 -80.4890 195° South 419 482 34,000  Level FlightAware
08:34AM 37.6360 -80.5180 195° South 419 482 34,000  Level FlightAware
08:35AM 37.5700 -80.5400 195° South 419 482 34,000  Level FlightAware
08:35AM 37.5060 -80.5620 195° South 419 482 34,000  Level FlightAware
08:36AM 37.4420 -80.5830 195° South 419 482 34,000  Level FlightAware
08:37AM 37.3790 -80.6050 196° South 419 482 34,000  Level FlightAware
08:37AM 37.2990 -80.6310 194° South 419 482 34,000  Level FlightAware
08:38AM 37.2360 -80.6530 196° South 419 482 34,000  Level FlightAware
08:39AM 37.1720 -80.6740 195° South 419 482 34,000  Level FlightAware
08:39AM 37.1080 -80.6960 195° South 419 482 34,000  Level FlightAware
08:40AM 37.0450 -80.7170 195° South 419 482 34,000  Level FlightAware
08:41AM 36.9650 -80.7440 195° South 419 482 34,000  Level FlightAware
08:42AM 36.9010 -80.7650 195° South 419 482 34,000  Level FlightAware
08:42AM 36.8380 -80.7860 195° South 419 482 34,000  Level FlightAware
08:43AM 36.7740 -80.8080 195° South 419 482 34,000  Level FlightAware
08:44AM 36.7100 -80.8290 195° South 419 482 34,000  Level FlightAware
08:45AM 36.4770 -81.0789 221° Southwest 408 470 34,000  Level FlightAware ADS-B
08:45AM 36.4262 -81.1094 206° Southwest 407 468 34,000  Level FlightAware ADS-B
08:46AM 36.3736 -81.1412 206° Southwest 407 468 34,000  Level FlightAware ADS-B
08:46AM 36.3215 -81.1724 206° Southwest 404 465 34,000  Level FlightAware ADS-B
08:47AM 36.2663 -81.2053 206° Southwest 404 465 34,000  Level FlightAware ADS-B
08:47AM 36.2155 -81.2358 206° Southwest 405 466 34,000  Level FlightAware ADS-B
08:48AM 36.1326 -81.2851 206° Southwest 406 467 34,000  Level FlightAware ADS-B
08:49AM 36.0708 -81.3219 206° Southwest 404 465 34,000  Level FlightAware ADS-B
08:50AM 35.9877 -81.3713 206° Southwest 402 463 34,000  Level FlightAware ADS-B
08:50AM 35.9369 -81.4013 206° Southwest 403 464 34,000  Level FlightAware ADS-B
08:51AM 35.8831 -81.4330 206° Southwest 405 466 34,000  Level FlightAware ADS-B
08:51AM 35.8312 -81.4637 206° Southwest 405 466 34,000  Level FlightAware ADS-B
08:52AM 35.7797 -81.4939 205° Southwest 405 466 34,000  Level FlightAware ADS-B
08:52AM 35.7263 -81.5254 206° Southwest 403 464 34,000  Level FlightAware ADS-B
08:53AM 35.6747 -81.5558 206° Southwest 403 464 34,000  Level FlightAware ADS-B
08:53AM 35.6242 -81.5854 205° Southwest 403 464 34,000  Level FlightAware ADS-B
08:54AM 35.5734 -81.6152 206° Southwest 403 464 34,000  Level FlightAware ADS-B
08:54AM 35.5182 -81.6475 205° Southwest 403 464 34,000  Level FlightAware ADS-B
08:55AM 35.4671 -81.6775 206° Southwest 401 461 34,000  Level FlightAware ADS-B
08:55AM 35.4168 -81.7068 205° Southwest 401 461 34,000  Level FlightAware ADS-B
08:56AM 35.3660 -81.7361 205° Southwest 402 463 34,000  Level FlightAware ADS-B
08:56AM 35.3146 -81.7659 205° Southwest 401 461 34,000  Level FlightAware ADS-B
08:57AM 35.2635 -81.7954 205° Southwest 401 461 34,000  Level FlightAware ADS-B
08:57AM 35.2122 -81.8250 205° Southwest 403 464 34,000  Level FlightAware ADS-B
08:58AM 35.1583 -81.8563 205° Southwest 401 461 34,000  Level FlightAware ADS-B
08:58AM 35.1066 -81.8860 205° Southwest 402 463 34,000  Level FlightAware ADS-B
08:59AM 35.0487 -81.9133 201° Southwest 411 473 34,000  Level FlightAware ADS-B
08:59AM 35.0120 -81.9243 194° South 413 475 34,000  Level FlightAware ADS-B
09:00AM 34.9543 -81.9349 189° South 417 480 34,000  Level FlightAware ADS-B
09:00AM 34.8956 -81.9466 189° South 417 480 34,000  Level FlightAware ADS-B
09:01AM 34.8371 -81.9579 189° South 419 482 34,000  Level FlightAware ADS-B
09:01AM 34.7763 -81.9691 189° South 422 486 34,000  Level FlightAware ADS-B
09:02AM 34.7163 -81.9799 188° South 424 488 34,000  Level FlightAware ADS-B
09:02AM 34.6502 -81.9917 188° South 423 487 34,000  Level FlightAware ADS-B
09:03AM 34.5853 -82.0032 188° South 421 484 34,000  Level FlightAware ADS-B
09:03AM 34.5255 -82.0137 188° South 422 486 34,000  Level FlightAware ADS-B
09:04AM 34.4658 -82.0243 188° South 421 484 34,000  Level FlightAware ADS-B
09:05AM 34.3410 -82.0460 188° South 422 486 34,000  Level FlightAware
09:06AM 34.2540 -82.0620 189° South 422 486 34,000  Level FlightAware
09:06AM 34.1780 -82.0750 188° South 423 487 34,000  Level FlightAware
09:07AM 34.0900 -82.0910 189° South 422 486 34,000  Level FlightAware
09:08AM 34.0020 -82.1060 188° South 423 487 34,000  Level FlightAware
09:09AM 33.9260 -82.1190 188° South 423 487 34,000  Level FlightAware
09:09AM 33.8540 -82.1320 189° South 424 488 34,000  Level FlightAware
09:10AM 33.7660 -82.1470 188° South 426 490 34,000  Level FlightAware
09:11AM 33.6820 -82.1610 188° South 429 494 34,000  Level FlightAware
09:11AM 33.5960 -82.1750 188° South 430 495 34,000  Level FlightAware
09:12AM 33.5150 -82.1880 188° South 428 493 34,000  Level FlightAware
09:13AM 33.4350 -82.2010 188° South 428 493 34,000  Level FlightAware
09:13AM 33.3730 -82.2110 188° South 426 490 34,000  Level FlightAware
09:14AM 33.2720 -82.2270 188° South 427 491 34,000  Level FlightAware
09:15AM 33.2020 -82.2380 187° South 419 482 34,000  Level FlightAware
09:16AM 33.1140 -82.2520 188° South 419 482 34,000  Level FlightAware
09:17AM 33.0020 -82.2690 187° South 419 482 34,000  Level FlightAware
09:17AM 32.9170 -82.2830 188° South 420 483 34,000  Level FlightAware
09:18AM 32.8270 -82.2970 187° South 431 496 34,000  Level FlightAware
09:19AM 32.7470 -82.3100 188° South 431 496 34,000  Level FlightAware
09:19AM 32.6730 -82.3210 187° South 434 499 34,000  Level FlightAware
09:20AM 32.5780 -82.3360 188° South 433 498 34,000  Level FlightAware
09:21AM 32.4910 -82.3500 188° South 433 498 34,000  Level FlightAware
09:21AM 32.4170 -82.3610 187° South 433 498 34,000  Level FlightAware
09:22AM 32.3400 -82.3740 188° South 433 498 34,000  Level FlightAware
09:23AM 32.2730 -82.3850 188° South 433 498 34,000  Level FlightAware
09:23AM 32.3400 -82.3740 North 434 499 34,000  Level FlightAware
09:24AM 32.0820 -82.4140 187° South 435 501 34,000  Level FlightAware
09:25AM 32.0140 -82.4250 188° South 435 501 34,000  Level FlightAware
09:26AM 31.9460 -82.4370 189° South 435 501 34,000  Level FlightAware
09:26AM 31.8780 -82.4480 188° South 435 501 34,000  Level FlightAware
09:27AM 31.8110 -82.4590 188° South 435 501 34,000  Level FlightAware
09:28AM 31.7260 -82.4730 188° South 435 501 34,000  Level FlightAware
09:28AM 31.6580 -82.4840 188° South 435 501 34,000  Level FlightAware
09:29AM 31.5900 -82.4950 188° South 435 501 34,000  Level FlightAware
09:30AM 31.5230 -82.5070 189° South 435 501 34,000  Level FlightAware
09:30AM 31.4550 -82.5180 188° South 435 501 34,000  Level FlightAware
09:31AM 31.3700 -82.5320 188° South 435 501 34,000  Level FlightAware
09:32AM 31.3030 -82.5430 188° South 435 501 34,000  Level FlightAware
09:33AM 31.2350 -82.5540 188° South 435 501 34,000  Level FlightAware
09:33AM 31.1670 -82.5650 188° South 435 501 34,000  Level FlightAware
09:34AM 30.8717 -82.5417 188° South 447 514 34,000  Level Jacksonville Center
09:35AM 30.7464 -82.5444 181° South 453 521 34,000  Level Jacksonville Center
09:36AM 30.6147 -82.5497 182° South 461 531 34,000 180 Level Jacksonville Center
09:37AM 30.4894 -82.5550 182° South 461 531 34,400 360 Climbing Jacksonville Center
09:38AM 30.3642 -82.5628 183° South 461 531 34,800 60 Climbing Jacksonville Center
09:44AM 29.5540 -82.5860 183° South 454 522 35,000  Climbing FlightAware
09:45AM 29.4660 -82.5910 183° South 454 522 35,000  Level FlightAware
09:46AM 29.3810 -82.5950 182° South 454 522 35,000  Level FlightAware
09:46AM 29.2840 -82.6010 183° South 463 533 35,000  Level FlightAware
09:47AM 29.1980 -82.6050 182° South 465 535 35,000  Level FlightAware
09:48AM 29.1120 -82.6090 182° South 464 534 35,000  Level FlightAware
09:48AM 29.0250 -82.6140 183° South 464 534 35,000  Level FlightAware
09:49AM 28.9270 -82.6190 183° South 466 536 35,000  Level FlightAware
09:50AM 28.8320 -82.6240 183° South 467 537 35,000  Level FlightAware
09:51AM 28.7470 -82.6280 182° South 468 539 35,000  Level FlightAware
09:51AM 28.6450 -82.6340 183° South 463 533 35,000  Level FlightAware
09:52AM 28.5610 -82.6380 182° South 470 541 35,000  Level FlightAware
09:53AM 28.4720 -82.6420 182° South 463 533 35,000  Level FlightAware
09:53AM 28.3730 -82.6470 183° South 467 537 35,000  Level FlightAware
09:54AM 28.2830 -82.6520 183° South 469 540 35,000  Level FlightAware
09:55AM 28.2050 -82.6560 183° South 479 551 35,000  Level FlightAware
09:55AM 28.1160 -82.6610 183° South 470 541 35,000  Level FlightAware
09:56AM 28.0140 -82.6580 179° South 482 555 35,000  Level FlightAware
09:57AM 27.9270 -82.6410 170° South 499 574 35,000  Level FlightAware
09:58AM 27.8240 -82.6010 161° South 511 588 35,000  Level FlightAware
09:58AM 27.7400 -82.5510 152° Southeast 515 593 35,000  Level FlightAware
09:59AM 27.6550 -82.4960 150° Southeast 520 598 35,000  Level FlightAware
10:00AM 27.5620 -82.4360 150° Southeast 520 598 35,000  Level FlightAware
10:00AM 27.4860 -82.3850 149° Southeast 520 598 35,000  Level FlightAware
10:01AM 27.3920 -82.3230 150° Southeast 518 596 35,000  Level FlightAware
10:02AM 27.3020 -82.2640 150° Southeast 519 597 35,000  Level FlightAware
10:02AM 27.2150 -82.2070 150° Southeast 518 596 35,000  Level FlightAware
10:03AM 27.1200 -82.1440 149° Southeast 518 596 35,000  Level FlightAware
10:04AM 27.0420 -82.0930 150° Southeast 515 593 35,000  Level FlightAware
10:04AM 26.9610 -82.0400 150° Southeast 514 592 35,000  Level FlightAware
10:05AM 26.8650 -81.9770 150° Southeast 514 592 35,000  Level FlightAware
10:06AM 26.7810 -81.9230 150° Southeast 515 593 35,000  Level FlightAware
10:07AM 26.6970 -81.8680 150° Southeast 509 586 35,000  Level FlightAware
10:07AM 26.6160 -81.8150 150° Southeast 517 595 35,000  Level FlightAware
10:08AM 26.5180 -81.7610 154° Southeast 502 578 35,000  Level FlightAware
10:09AM 26.4220 -81.7250 161° South 499 574 35,000  Level FlightAware
10:09AM 26.3250 -81.6860 160° South 502 578 35,000  Level FlightAware
10:10AM 26.2350 -81.6510 161° South 502 578 35,000  Level FlightAware
10:11AM 26.1470 -81.6180 161° South 504 580 35,000  Level FlightAware
10:12AM 26.0560 -81.5840 161° South 497 572 35,000  Level FlightAware
10:12AM 25.9670 -81.5500 161° South 497 572 35,000  Level FlightAware
10:13AM 25.8670 -81.5130 162° South 505 581 35,000  Level FlightAware
10:14AM 25.7770 -81.4790 161° South 495 570 35,000  Level FlightAware
10:14AM 25.6890 -81.4470 162° South 495 570 35,000  Level FlightAware
10:15AM 25.5880 -81.4090 161° South 506 582 35,000  Level FlightAware
10:16AM 25.5020 -81.3770 161° South 506 582 35,000  Level FlightAware
10:16AM 25.4130 -81.3430 161° South 494 568 35,000  Level FlightAware
10:17AM 25.3160 -81.3080 162° South 474 545 35,000  Level FlightAware
10:18AM 25.2300 -81.2810 164° South 484 557 35,000  Level FlightAware
10:19AM 25.1320 -81.2540 166° South 479 551 35,000 60 Level FlightAware
10:19AM 25.0460 -81.2290 165° South 479 551 35,100  Climbing FlightAware
10:20AM 24.9600 -81.1980 162° South 488 562 35,000 -120 Descending FlightAware
10:21AM 24.8680 -81.1460 153° Southeast 496 571 35,000  Level FlightAware
10:21AM 24.7800 -81.1190 164° South 488 562 35,000  Level FlightAware
10:22AM 24.6760 -81.1090 175° South 480 552 35,000  Level FlightAware
10:23AM 24.5900 -81.1130 182° South 469 540 35,000  Level FlightAware
10:23AM 24.5050 -81.1230 186° South 468 539 35,000  Level FlightAware
10:24AM 24.4010 -81.1390 188° South 469 540 35,000  Level FlightAware
10:25AM 24.3140 -81.1550 190° South 470 541 35,000  Level FlightAware
10:25AM 24.2380 -81.1690 190° South 469 540 35,000  Level FlightAware
10:26AM 24.1270 -81.1830 187° South 485 558 35,000  Level FlightAware
10:27AM 24.0370 -81.1560 165° South 524 603 35,000  Level FlightAware
10:28AM 23.9550 -81.0740 138° Southeast 540 621 35,000  Level FlightAware
10:28AM 23.9060 -80.9780 119° Southeast 540 621 35,000  Level FlightAware
10:29AM 23.8610 -80.8860 118° Southeast 539 620 35,000  Level FlightAware
10:30AM 23.8030 -80.7890 123° Southeast 536 617 35,000  Level FlightAware
10:30AM 23.7560 -80.7130 124° Southeast 536 617 35,000  Level FlightAware
10:31AM 23.7090 -80.6360 124° Southeast 536 617 35,000  Level FlightAware
10:32AM 23.5630 -80.5270 146° Southeast 531 611 35,000  Level FlightAware
10:33AM 23.5060 -80.4600 133° Southeast 531 611 35,000  Level FlightAware
10:33AM 23.4040 -80.3490 135° Southeast 536 617 35,000  Level FlightAware
10:34AM 23.3550 -80.2930 134° Southeast 534 615 35,000  Level FlightAware
10:35AM 23.2710 -80.1940 133° Southeast 534 615 35,000  Level FlightAware
10:36AM 23.2130 -80.1280 134° Southeast 534 615 35,000  Level FlightAware
10:36AM 23.1560 -80.0610 133° Southeast 534 615 35,000  Level FlightAware
10:37AM 23.1110 -79.9770 120° Southeast 35,000  Level FlightAware
10:39AM 22.9860 -79.7652 123° Southeast  Level FlightAware Approximate
10:40AM 22.9223 -79.6576 123° Southeast  Level FlightAware Approximate
10:41AM 22.8585 -79.5501 123° Southeast  Level FlightAware Approximate
10:42AM 22.7947 -79.4428 123° Southeast  Level FlightAware Approximate
10:43AM 22.7308 -79.3355 123° Southeast  Level FlightAware Approximate
10:44AM 22.6668 -79.2283 123° Southeast  Level FlightAware Approximate
10:45AM 22.6028 -79.1213 123° Southeast  Level FlightAware Approximate
10:46AM 22.5387 -79.0143 123° Southeast  Level FlightAware Approximate
10:47AM 22.4745 -78.9075 123° Southeast  Level FlightAware Approximate
10:48AM 22.4103 -78.8007 123° Southeast  Level FlightAware Approximate
10:49AM 22.3459 -78.6940 123° Southeast  Level FlightAware Approximate
10:50AM 22.2816 -78.5875 123° Southeast  Level FlightAware Approximate
10:51AM 22.2171 -78.4810 123° Southeast  Level FlightAware Approximate
10:52AM 22.1526 -78.3746 123° Southeast  Level FlightAware Approximate
10:53AM 22.0880 -78.2683 123° Southeast  Level FlightAware Approximate
10:54AM 22.0195 -78.1624 126° Southeast  Level FlightAware Approximate
10:55AM 21.9508 -78.0592 126° Southeast  Level FlightAware Approximate
10:56AM 21.8820 -77.9562 126° Southeast  Level FlightAware Approximate
10:57AM 21.8132 -77.8532 126° Southeast  Level FlightAware Approximate
10:58AM 21.7432 -77.7512 127° Southeast  Level FlightAware Approximate
10:59AM 21.6729 -77.6496 127° Southeast  Level FlightAware Approximate
11:00AM 21.6037 -77.5471 126° Southeast  Level FlightAware Approximate
11:01AM 21.5351 -77.4442 126° Southeast  Level FlightAware Approximate
11:02AM 21.4665 -77.3413 126° Southeast  Level FlightAware Approximate
11:03AM 21.3979 -77.2385 126° Southeast  Level FlightAware Approximate
11:04AM 21.3323 -77.1336 123° Southeast  Level FlightAware Approximate
11:05AM 21.2673 -77.0281 123° Southeast  Level FlightAware Approximate
11:06AM 21.1959 -76.9278 129° Southeast  Level FlightAware Approximate
11:07AM 21.1241 -76.8278 126° Southeast  Level FlightAware Approximate
11:08AM 21.0557 -76.7251 126° Southeast  Level FlightAware Approximate
11:09AM 20.9885 -76.6215 124° Southeast  Level FlightAware Approximate
11:10AM 20.9197 -76.5197 137° Southeast  Level FlightAware Approximate
11:11AM 20.8565 -76.4142 129° Southeast  Level FlightAware Approximate
11:12AM 20.7897 -76.3106 123° Southeast  Level FlightAware Approximate
11:13AM 20.7833 -76.3000 123° Southeast  Level FlightAware Approximate
11:14AM 20.7856 -76.3151 123° Southeast  Level Estimated
11:15AM 20.7856 -76.3151 123° Southeast  Level Estimated
11:16AM 20.7856 -76.3151 123° Southeast  Level Estimated
11:17AM 20.7856 -76.3151 123° Southeast  Level Estimated
11:18AM 20.7856 -76.3151 123° Southeast  Level Estimated
11:19AM 20.7856 -76.3151 123° Southeast  Level Estimated
11:20AM 20.7856 -76.3151 123° Southeast  Level Estimated
11:21AM 20.7856 -76.3151 123° Southeast  Level Estimated
11:22AM 20.7856 -76.3151 123° Southeast  Level Estimated
11:23AM 20.7856 -76.3151 123° Southeast  Level Estimated
11:24AM 20.7856 -76.3151 123° Southeast  Level Estimated
11:25AM 20.7856 -76.3151 123° Southeast  Level Estimated
11:26AM 20.7856 -76.3151 123° Southeast  Level Estimated
11:27AM 20.7856 -76.3151 123° Southeast  Level Estimated
11:28AM 20.7856 -76.3151 123° Southeast  Level Estimated
11:29AM 20.7856 -76.3151 123° Southeast  Level Estimated
11:30AM 20.7856 -76.3151 123° Southeast  Level Estimated
11:31AM 20.7856 -76.3151 123° Southeast  Level Estimated